sensor_id;sensor_type;location;lat;lon;timestamp;temperature;humidity
28532;DHT22;15738;44.860;10.066;2023-07-28T00:00:25;22.20;99.90
28532;DHT22;15738;44.860;10.066;2023-07-28T00:03:11;22.10;99.90
28532;DHT22;15738;44.860;10.066;2023-07-28T00:05:57;21.80;99.90
28532;DHT22;15738;44.860;10.066;2023-07-28T00:11:29;21.60;99.90
28532;DHT22;15738;44.860;10.066;2023-07-28T00:17:01;22.80;99.90
28532;DHT22;15738;44.860;10.066;2023-07-28T00:19:47;21.30;99.90
28532;DHT22;15738;44.860;10.066;2023-07-28T00:22:33;21.80;99.90
28532;DHT22;15738;44.860;10.066;2023-07-28T00:28:05;21.60;99.90
28532;DHT22;15738;44.860;10.066;2023-07-28T00:30:51;21.60;99.90
28532;DHT22;15738;44.860;10.066;2023-07-28T00:33:37;22.10;99.90
28532;DHT22;15738;44.860;10.066;2023-07-28T00:39:11;21.50;99.90
28532;DHT22;15738;44.860;10.066;2023-07-28T00:41:57;21.90;99.90
28532;DHT22;15738;44.860;10.066;2023-07-28T00:47:28;21.60;99.90
28532;DHT22;15738;44.860;10.066;2023-07-28T00:50:14;21.40;99.90
28532;DHT22;15738;44.860;10.066;2023-07-28T00:55:46;21.50;99.90
28532;DHT22;15738;44.860;10.066;2023-07-28T00:58:32;21.50;99.90
28532;DHT22;15738;44.860;10.066;2023-07-28T01:01:18;21.30;99.90
28532;DHT22;15738;44.860;10.066;2023-07-28T01:07:53;21.30;99.90
28532;DHT22;15738;44.860;10.066;2023-07-28T01:10:18;21.60;99.90
28532;DHT22;15738;44.860;10.066;2023-07-28T01:15:53;21.40;99.90
28532;DHT22;15738;44.860;10.066;2023-07-28T01:18:40;21.20;99.90
28532;DHT22;15738;44.860;10.066;2023-07-28T01:21:28;20.80;99.90
28532;DHT22;15738;44.860;10.066;2023-07-28T01:24:41;21.20;99.90
28532;DHT22;15738;44.860;10.066;2023-07-28T01:27:28;21.40;99.90
28532;DHT22;15738;44.860;10.066;2023-07-28T01:30:15;21.10;99.90
28532;DHT22;15738;44.860;10.066;2023-07-28T01:33:01;21.00;99.90
28532;DHT22;15738;44.860;10.066;2023-07-28T01:35:51;20.80;99.90
28532;DHT22;15738;44.860;10.066;2023-07-28T01:38:36;21.10;99.90
28532;DHT22;15738;44.860;10.066;2023-07-28T01:41:23;20.90;99.90
28532;DHT22;15738;44.860;10.066;2023-07-28T01:44:08;21.40;99.90
28532;DHT22;15738;44.860;10.066;2023-07-28T01:46:54;20.80;99.90
28532;DHT22;15738;44.860;10.066;2023-07-28T01:49:40;21.40;99.90
28532;DHT22;15738;44.860;10.066;2023-07-28T01:52:26;22.10;99.90
28532;DHT22;15738;44.860;10.066;2023-07-28T01:55:12;20.50;99.90
28532;DHT22;15738;44.860;10.066;2023-07-28T01:57:59;20.70;99.90
28532;DHT22;15738;44.860;10.066;2023-07-28T02:00:46;21.20;99.90
28532;DHT22;15738;44.860;10.066;2023-07-28T02:03:32;20.40;99.90
28532;DHT22;15738;44.860;10.066;2023-07-28T02:06:18;20.90;99.90
28532;DHT22;15738;44.860;10.066;2023-07-28T02:09:04;21.20;99.90
28532;DHT22;15738;44.860;10.066;2023-07-28T02:11:50;20.70;99.90
28532;DHT22;15738;44.860;10.066;2023-07-28T02:14:36;20.70;99.90
28532;DHT22;15738;44.860;10.066;2023-07-28T02:17:21;20.70;99.90
28532;DHT22;15738;44.860;10.066;2023-07-28T02:20:08;20.70;99.90
28532;DHT22;15738;44.860;10.066;2023-07-28T02:22:56;20.70;99.90
28532;DHT22;15738;44.860;10.066;2023-07-28T02:25:42;20.80;99.90
28532;DHT22;15738;44.860;10.066;2023-07-28T02:28:27;20.80;99.90
28532;DHT22;15738;44.860;10.066;2023-07-28T02:31:15;20.90;99.90
28532;DHT22;15738;44.860;10.066;2023-07-28T02:34:00;20.90;99.90
28532;DHT22;15738;44.860;10.066;2023-07-28T02:36:47;21.00;99.90
28532;DHT22;15738;44.860;10.066;2023-07-28T02:39:33;21.10;99.90
28532;DHT22;15738;44.860;10.066;2023-07-28T02:42:19;21.10;99.90
28532;DHT22;15738;44.860;10.066;2023-07-28T02:45:07;21.10;99.90
28532;DHT22;15738;44.860;10.066;2023-07-28T02:47:53;21.10;99.90
28532;DHT22;15738;44.860;10.066;2023-07-28T02:50:45;21.10;99.90
28532;DHT22;15738;44.860;10.066;2023-07-28T02:53:31;21.10;99.90
28532;DHT22;15738;44.860;10.066;2023-07-28T02:56:17;21.10;99.90
28532;DHT22;15738;44.860;10.066;2023-07-28T02:59:04;21.10;99.90
28532;DHT22;15738;44.860;10.066;2023-07-28T03:01:50;21.00;99.90
28532;DHT22;15738;44.860;10.066;2023-07-28T03:04:38;21.00;99.90
28532;DHT22;15738;44.860;10.066;2023-07-28T03:07:43;20.90;99.90
28532;DHT22;15738;44.860;10.066;2023-07-28T03:10:29;20.90;99.90
28532;DHT22;15738;44.860;10.066;2023-07-28T03:13:14;20.80;99.90
28532;DHT22;15738;44.860;10.066;2023-07-28T03:16:00;20.80;99.90
28532;DHT22;15738;44.860;10.066;2023-07-28T03:18:46;20.80;99.90
28532;DHT22;15738;44.860;10.066;2023-07-28T03:21:32;20.80;99.90
28532;DHT22;15738;44.860;10.066;2023-07-28T03:24:18;20.80;99.90
28532;DHT22;15738;44.860;10.066;2023-07-28T03:27:04;20.70;99.90
28532;DHT22;15738;44.860;10.066;2023-07-28T03:29:51;20.70;99.90
28532;DHT22;15738;44.860;10.066;2023-07-28T03:32:39;20.70;99.90
28532;DHT22;15738;44.860;10.066;2023-07-28T03:35:25;20.70;99.90
28532;DHT22;15738;44.860;10.066;2023-07-28T03:38:20;20.60;99.90
28532;DHT22;15738;44.860;10.066;2023-07-28T03:41:06;20.50;99.90
28532;DHT22;15738;44.860;10.066;2023-07-28T03:43:53;20.40;99.90
28532;DHT22;15738;44.860;10.066;2023-07-28T03:51:18;20.50;99.90
28532;DHT22;15738;44.860;10.066;2023-07-28T03:54:04;20.40;99.90
28532;DHT22;15738;44.860;10.066;2023-07-28T03:56:50;20.30;99.90
28532;DHT22;15738;44.860;10.066;2023-07-28T03:59:38;20.30;99.90
28532;DHT22;15738;44.860;10.066;2023-07-28T04:02:24;20.30;99.90
28532;DHT22;15738;44.860;10.066;2023-07-28T04:05:10;20.20;99.90
28532;DHT22;15738;44.860;10.066;2023-07-28T04:07:56;20.20;99.90
28532;DHT22;15738;44.860;10.066;2023-07-28T04:10:41;20.20;99.90
28532;DHT22;15738;44.860;10.066;2023-07-28T04:13:27;20.30;99.90
28532;DHT22;15738;44.860;10.066;2023-07-28T04:16:13;20.40;99.90
28532;DHT22;15738;44.860;10.066;2023-07-28T04:18:59;20.40;99.90
28532;DHT22;15738;44.860;10.066;2023-07-28T04:21:45;20.50;99.90
28532;DHT22;15738;44.860;10.066;2023-07-28T04:24:31;20.60;99.90
28532;DHT22;15738;44.860;10.066;2023-07-28T04:27:18;20.60;99.90
28532;DHT22;15738;44.860;10.066;2023-07-28T04:30:06;20.60;99.90
28532;DHT22;15738;44.860;10.066;2023-07-28T04:32:52;20.60;99.90
28532;DHT22;15738;44.860;10.066;2023-07-28T04:35:43;20.60;99.90
28532;DHT22;15738;44.860;10.066;2023-07-28T04:38:35;20.60;99.90
28532;DHT22;15738;44.860;10.066;2023-07-28T04:41:21;20.50;99.90
28532;DHT22;15738;44.860;10.066;2023-07-28T04:44:11;20.40;99.90
28532;DHT22;15738;44.860;10.066;2023-07-28T04:47:00;20.40;99.90
28532;DHT22;15738;44.860;10.066;2023-07-28T04:49:46;20.30;99.90
28532;DHT22;15738;44.860;10.066;2023-07-28T04:52:51;20.40;99.90
28532;DHT22;15738;44.860;10.066;2023-07-28T04:55:56;20.30;99.90
28532;DHT22;15738;44.860;10.066;2023-07-28T04:58:42;20.40;99.90
28532;DHT22;15738;44.860;10.066;2023-07-28T05:01:28;20.30;99.90
28532;DHT22;15738;44.860;10.066;2023-07-28T05:04:14;20.30;99.90
28532;DHT22;15738;44.860;10.066;2023-07-28T05:06:59;20.40;99.90
28532;DHT22;15738;44.860;10.066;2023-07-28T05:09:46;20.40;99.90
28532;DHT22;15738;44.860;10.066;2023-07-28T05:12:32;20.40;99.90
28532;DHT22;15738;44.860;10.066;2023-07-28T05:15:18;20.50;99.90
28532;DHT22;15738;44.860;10.066;2023-07-28T05:18:04;20.50;99.90
28532;DHT22;15738;44.860;10.066;2023-07-28T05:21:16;20.60;99.90
28532;DHT22;15738;44.860;10.066;2023-07-28T05:24:02;20.60;99.90
28532;DHT22;15738;44.860;10.066;2023-07-28T05:26:53;20.60;99.90
28532;DHT22;15738;44.860;10.066;2023-07-28T05:29:38;20.70;99.90
28532;DHT22;15738;44.860;10.066;2023-07-28T05:32:25;20.70;99.90
28532;DHT22;15738;44.860;10.066;2023-07-28T05:35:26;20.70;99.90
28532;DHT22;15738;44.860;10.066;2023-07-28T05:38:12;20.80;99.90
28532;DHT22;15738;44.860;10.066;2023-07-28T05:40:58;20.90;99.90
28532;DHT22;15738;44.860;10.066;2023-07-28T05:43:46;21.00;99.90
28532;DHT22;15738;44.860;10.066;2023-07-28T05:46:36;21.10;99.90
28532;DHT22;15738;44.860;10.066;2023-07-28T05:49:22;21.20;99.90
28532;DHT22;15738;44.860;10.066;2023-07-28T05:52:08;21.20;99.90
28532;DHT22;15738;44.860;10.066;2023-07-28T05:54:54;21.20;99.90
28532;DHT22;15738;44.860;10.066;2023-07-28T05:57:40;21.30;99.90
28532;DHT22;15738;44.860;10.066;2023-07-28T06:00:27;21.40;99.90
28532;DHT22;15738;44.860;10.066;2023-07-28T06:03:15;21.50;99.90
28532;DHT22;15738;44.860;10.066;2023-07-28T06:06:16;21.60;99.90
28532;DHT22;15738;44.860;10.066;2023-07-28T06:09:02;21.70;99.90
28532;DHT22;15738;44.860;10.066;2023-07-28T06:11:48;21.80;99.90
28532;DHT22;15738;44.860;10.066;2023-07-28T06:14:34;21.90;99.90
28532;DHT22;15738;44.860;10.066;2023-07-28T06:17:22;22.00;99.90
28532;DHT22;15738;44.860;10.066;2023-07-28T06:20:08;22.20;99.90
28532;DHT22;15738;44.860;10.066;2023-07-28T06:22:55;22.30;99.90
28532;DHT22;15738;44.860;10.066;2023-07-28T06:25:41;22.40;99.90
28532;DHT22;15738;44.860;10.066;2023-07-28T06:28:31;22.50;99.90
28532;DHT22;15738;44.860;10.066;2023-07-28T06:31:17;22.60;99.90
28532;DHT22;15738;44.860;10.066;2023-07-28T06:34:04;22.70;99.90
28532;DHT22;15738;44.860;10.066;2023-07-28T06:36:50;22.80;99.90
28532;DHT22;15738;44.860;10.066;2023-07-28T06:39:36;22.90;99.90
28532;DHT22;15738;44.860;10.066;2023-07-28T06:42:22;23.00;99.90
28532;DHT22;15738;44.860;10.066;2023-07-28T06:45:14;23.10;99.90
28532;DHT22;15738;44.860;10.066;2023-07-28T06:48:00;23.10;99.90
28532;DHT22;15738;44.860;10.066;2023-07-28T06:50:46;23.20;99.90
28532;DHT22;15738;44.860;10.066;2023-07-28T06:53:32;23.30;99.90
28532;DHT22;15738;44.860;10.066;2023-07-28T06:56:20;23.40;99.90
28532;DHT22;15738;44.860;10.066;2023-07-28T06:59:06;23.50;99.90
28532;DHT22;15738;44.860;10.066;2023-07-28T07:02:02;23.60;99.90
28532;DHT22;15738;44.860;10.066;2023-07-28T07:04:47;23.80;99.90
28532;DHT22;15738;44.860;10.066;2023-07-28T07:07:34;23.90;99.90
28532;DHT22;15738;44.860;10.066;2023-07-28T07:10:20;24.30;99.90
28532;DHT22;15738;44.860;10.066;2023-07-28T07:13:06;24.60;99.90
28532;DHT22;15738;44.860;10.066;2023-07-28T07:15:52;24.90;99.90
28532;DHT22;15738;44.860;10.066;2023-07-28T07:18:38;25.30;99.90
28532;DHT22;15738;44.860;10.066;2023-07-28T07:21:24;25.90;99.90
28532;DHT22;15738;44.860;10.066;2023-07-28T07:24:11;26.30;99.90
28532;DHT22;15738;44.860;10.066;2023-07-28T07:26:59;26.80;99.90
28532;DHT22;15738;44.860;10.066;2023-07-28T07:29:45;27.20;99.90
28532;DHT22;15738;44.860;10.066;2023-07-28T07:32:33;27.50;99.90
28532;DHT22;15738;44.860;10.066;2023-07-28T07:35:19;27.80;99.90
28532;DHT22;15738;44.860;10.066;2023-07-28T07:38:05;28.10;99.90
28532;DHT22;15738;44.860;10.066;2023-07-28T07:40:54;28.20;99.90
28532;DHT22;15738;44.860;10.066;2023-07-28T07:43:40;28.40;99.90
28532;DHT22;15738;44.860;10.066;2023-07-28T07:46:27;28.20;99.90
28532;DHT22;15738;44.860;10.066;2023-07-28T07:49:12;28.50;99.90
28532;DHT22;15738;44.860;10.066;2023-07-28T07:51:58;28.70;99.90
28532;DHT22;15738;44.860;10.066;2023-07-28T07:54:45;28.90;99.90
28532;DHT22;15738;44.860;10.066;2023-07-28T07:57:31;29.10;99.90
28532;DHT22;15738;44.860;10.066;2023-07-28T08:00:17;29.00;99.90
28532;DHT22;15738;44.860;10.066;2023-07-28T08:03:03;29.30;99.90
28532;DHT22;15738;44.860;10.066;2023-07-28T08:05:51;29.60;99.90
28532;DHT22;15738;44.860;10.066;2023-07-28T08:08:37;29.80;99.90
28532;DHT22;15738;44.860;10.066;2023-07-28T08:11:26;29.90;99.90
28532;DHT22;15738;44.860;10.066;2023-07-28T08:14:12;30.00;99.90
28532;DHT22;15738;44.860;10.066;2023-07-28T08:16:58;30.20;99.90
28532;DHT22;15738;44.860;10.066;2023-07-28T08:19:44;30.30;99.90
28532;DHT22;15738;44.860;10.066;2023-07-28T08:22:29;30.30;99.90
28532;DHT22;15738;44.860;10.066;2023-07-28T08:25:16;30.40;99.90
28532;DHT22;15738;44.860;10.066;2023-07-28T08:28:02;30.80;99.90
28532;DHT22;15738;44.860;10.066;2023-07-28T08:30:55;31.10;99.90
28532;DHT22;15738;44.860;10.066;2023-07-28T08:33:41;30.90;99.90
28532;DHT22;15738;44.860;10.066;2023-07-28T08:36:28;31.00;99.90
28532;DHT22;15738;44.860;10.066;2023-07-28T08:39:14;31.20;99.90
28532;DHT22;15738;44.860;10.066;2023-07-28T08:42:01;31.10;99.90
28532;DHT22;15738;44.860;10.066;2023-07-28T08:44:48;31.00;99.80
28532;DHT22;15738;44.860;10.066;2023-07-28T08:47:35;31.30;99.90
28532;DHT22;15738;44.860;10.066;2023-07-28T08:50:21;31.30;99.30
28532;DHT22;15738;44.860;10.066;2023-07-28T08:53:07;31.50;99.40
28532;DHT22;15738;44.860;10.066;2023-07-28T08:55:53;31.50;98.90
28532;DHT22;15738;44.860;10.066;2023-07-28T08:58:38;31.40;98.80
28532;DHT22;15738;44.860;10.066;2023-07-28T09:01:26;31.40;99.10
28532;DHT22;15738;44.860;10.066;2023-07-28T09:04:12;31.50;98.70
28532;DHT22;15738;44.860;10.066;2023-07-28T09:06:58;31.30;98.10
28532;DHT22;15738;44.860;10.066;2023-07-28T09:09:44;31.20;99.40
28532;DHT22;15738;44.860;10.066;2023-07-28T09:12:33;31.10;98.80
28532;DHT22;15738;44.860;10.066;2023-07-28T09:15:19;30.80;99.00
28532;DHT22;15738;44.860;10.066;2023-07-28T09:18:13;30.90;99.30
28532;DHT22;15738;44.860;10.066;2023-07-28T09:20:59;31.00;99.00
28532;DHT22;15738;44.860;10.066;2023-07-28T09:23:45;30.80;97.70
28532;DHT22;15738;44.860;10.066;2023-07-28T09:26:46;30.70;98.40
28532;DHT22;15738;44.860;10.066;2023-07-28T09:29:32;30.80;99.00
28532;DHT22;15738;44.860;10.066;2023-07-28T09:32:28;30.90;98.50
28532;DHT22;15738;44.860;10.066;2023-07-28T09:35:15;30.70;97.90
28532;DHT22;15738;44.860;10.066;2023-07-28T09:38:01;30.80;99.00
28532;DHT22;15738;44.860;10.066;2023-07-28T09:40:49;30.50;98.40
28532;DHT22;15738;44.860;10.066;2023-07-28T09:43:39;30.40;97.60
28532;DHT22;15738;44.860;10.066;2023-07-28T09:46:28;30.40;98.40
28532;DHT22;15738;44.860;10.066;2023-07-28T09:49:15;30.50;98.20
28532;DHT22;15738;44.860;10.066;2023-07-28T09:52:08;30.70;98.40
28532;DHT22;15738;44.860;10.066;2023-07-28T09:54:55;30.80;98.60
28532;DHT22;15738;44.860;10.066;2023-07-28T09:57:50;30.50;97.80
28532;DHT22;15738;44.860;10.066;2023-07-28T10:00:37;30.50;98.80
28532;DHT22;15738;44.860;10.066;2023-07-28T10:03:24;30.70;99.10
28532;DHT22;15738;44.860;10.066;2023-07-28T10:06:10;30.70;99.10
28532;DHT22;15738;44.860;10.066;2023-07-28T10:08:57;30.50;98.10
28532;DHT22;15738;44.860;10.066;2023-07-28T10:11:43;30.40;97.90
28532;DHT22;15738;44.860;10.066;2023-07-28T10:14:36;30.40;99.00
28532;DHT22;15738;44.860;10.066;2023-07-28T10:17:31;30.50;98.40
28532;DHT22;15738;44.860;10.066;2023-07-28T10:23:24;30.50;98.50
28532;DHT22;15738;44.860;10.066;2023-07-28T10:26:10;30.40;98.30
28532;DHT22;15738;44.860;10.066;2023-07-28T10:29:14;30.30;99.10
28532;DHT22;15738;44.860;10.066;2023-07-28T10:32:03;30.10;99.80
28532;DHT22;15738;44.860;10.066;2023-07-28T10:35:06;30.20;99.90
28532;DHT22;15738;44.860;10.066;2023-07-28T10:37:53;30.20;99.90
28532;DHT22;15738;44.860;10.066;2023-07-28T10:40:41;30.10;99.20
28532;DHT22;15738;44.860;10.066;2023-07-28T10:43:28;30.00;98.40
28532;DHT22;15738;44.860;10.066;2023-07-28T10:46:16;29.90;99.40
28532;DHT22;15738;44.860;10.066;2023-07-28T10:49:04;30.00;99.30
28532;DHT22;15738;44.860;10.066;2023-07-28T10:51:51;30.00;99.70
28532;DHT22;15738;44.860;10.066;2023-07-28T10:54:37;29.80;99.30
28532;DHT22;15738;44.860;10.066;2023-07-28T10:57:24;29.90;99.30
28532;DHT22;15738;44.860;10.066;2023-07-28T11:00:16;29.90;99.40
28532;DHT22;15738;44.860;10.066;2023-07-28T11:03:02;30.00;99.10
28532;DHT22;15738;44.860;10.066;2023-07-28T11:05:53;30.00;98.80
28532;DHT22;15738;44.860;10.066;2023-07-28T11:08:43;29.90;99.50
28532;DHT22;15738;44.860;10.066;2023-07-28T11:11:29;30.10;99.70
28532;DHT22;15738;44.860;10.066;2023-07-28T11:14:17;30.00;99.80
28532;DHT22;15738;44.860;10.066;2023-07-28T11:17:05;30.10;99.20
28532;DHT22;15738;44.860;10.066;2023-07-28T11:19:51;29.90;98.50
28532;DHT22;15738;44.860;10.066;2023-07-28T11:22:37;29.50;99.60
28532;DHT22;15738;44.860;10.066;2023-07-28T11:25:24;29.00;99.60
28532;DHT22;15738;44.860;10.066;2023-07-28T11:28:11;28.70;99.90
28532;DHT22;15738;44.860;10.066;2023-07-28T11:30:59;28.70;99.90
28532;DHT22;15738;44.860;10.066;2023-07-28T11:33:45;28.70;99.90
28532;DHT22;15738;44.860;10.066;2023-07-28T11:36:31;28.70;99.90
28532;DHT22;15738;44.860;10.066;2023-07-28T11:39:19;28.90;99.90
28532;DHT22;15738;44.860;10.066;2023-07-28T11:42:07;29.10;99.80
28532;DHT22;15738;44.860;10.066;2023-07-28T11:44:55;29.20;99.60
28532;DHT22;15738;44.860;10.066;2023-07-28T11:48:11;29.20;99.70
28532;DHT22;15738;44.860;10.066;2023-07-28T11:50:57;29.30;99.90
28532;DHT22;15738;44.860;10.066;2023-07-28T11:53:43;29.50;99.90
28532;DHT22;15738;44.860;10.066;2023-07-28T11:56:29;29.70;99.90
28532;DHT22;15738;44.860;10.066;2023-07-28T11:59:16;29.90;99.50
28532;DHT22;15738;44.860;10.066;2023-07-28T12:02:03;29.90;99.70
28532;DHT22;15738;44.860;10.066;2023-07-28T12:04:56;29.90;99.90
28532;DHT22;15738;44.860;10.066;2023-07-28T12:07:49;30.10;99.90
28532;DHT22;15738;44.860;10.066;2023-07-28T12:10:35;30.10;99.80
28532;DHT22;15738;44.860;10.066;2023-07-28T12:13:24;30.00;99.00
28532;DHT22;15738;44.860;10.066;2023-07-28T12:16:41;29.90;99.50
28532;DHT22;15738;44.860;10.066;2023-07-28T12:20:02;29.80;99.40
28532;DHT22;15738;44.860;10.066;2023-07-28T12:22:47;29.70;99.50
28532;DHT22;15738;44.860;10.066;2023-07-28T12:25:34;29.60;99.30
28532;DHT22;15738;44.860;10.066;2023-07-28T12:28:25;29.60;99.90
28532;DHT22;15738;44.860;10.066;2023-07-28T12:31:11;29.60;99.70
28532;DHT22;15738;44.860;10.066;2023-07-28T12:33:58;29.60;99.50
28532;DHT22;15738;44.860;10.066;2023-07-28T12:36:48;29.50;99.50
28532;DHT22;15738;44.860;10.066;2023-07-28T12:39:39;29.60;99.90
28532;DHT22;15738;44.860;10.066;2023-07-28T12:42:28;29.60;99.90
28532;DHT22;15738;44.860;10.066;2023-07-28T12:45:33;29.70;99.90
28532;DHT22;15738;44.860;10.066;2023-07-28T12:48:22;29.90;99.70
28532;DHT22;15738;44.860;10.066;2023-07-28T12:51:08;30.00;99.60
28532;DHT22;15738;44.860;10.066;2023-07-28T12:53:53;29.80;99.30
28532;DHT22;15738;44.860;10.066;2023-07-28T12:56:39;29.80;99.60
28532;DHT22;15738;44.860;10.066;2023-07-28T12:59:25;29.70;99.90
28532;DHT22;15738;44.860;10.066;2023-07-28T13:02:12;29.70;99.90
28532;DHT22;15738;44.860;10.066;2023-07-28T13:04:57;29.60;99.90
28532;DHT22;15738;44.860;10.066;2023-07-28T13:07:43;29.60;99.90
28532;DHT22;15738;44.860;10.066;2023-07-28T13:10:32;29.50;99.90
28532;DHT22;15738;44.860;10.066;2023-07-28T13:13:20;29.70;99.90
28532;DHT22;15738;44.860;10.066;2023-07-28T13:16:06;29.80;99.90
28532;DHT22;15738;44.860;10.066;2023-07-28T13:18:57;29.70;99.90
28532;DHT22;15738;44.860;10.066;2023-07-28T13:21:45;29.60;99.90
28532;DHT22;15738;44.860;10.066;2023-07-28T13:24:32;29.70;99.90
28532;DHT22;15738;44.860;10.066;2023-07-28T13:27:18;29.60;99.90
28532;DHT22;15738;44.860;10.066;2023-07-28T13:30:04;29.70;99.90
28532;DHT22;15738;44.860;10.066;2023-07-28T13:32:50;29.90;99.90
28532;DHT22;15738;44.860;10.066;2023-07-28T13:35:37;30.10;99.90
28532;DHT22;15738;44.860;10.066;2023-07-28T13:38:22;30.20;99.80
28532;DHT22;15738;44.860;10.066;2023-07-28T13:41:08;30.30;99.90
28532;DHT22;15738;44.860;10.066;2023-07-28T13:43:54;30.40;99.90
28532;DHT22;15738;44.860;10.066;2023-07-28T13:46:47;30.50;99.90
28532;DHT22;15738;44.860;10.066;2023-07-28T13:49:33;30.60;99.90
28532;DHT22;15738;44.860;10.066;2023-07-28T13:52:36;30.60;99.50
28532;DHT22;15738;44.860;10.066;2023-07-28T13:55:22;30.40;99.80
28532;DHT22;15738;44.860;10.066;2023-07-28T13:58:25;30.30;99.90
28532;DHT22;15738;44.860;10.066;2023-07-28T14:01:11;30.20;99.90
28532;DHT22;15738;44.860;10.066;2023-07-28T14:03:58;30.10;99.90
28532;DHT22;15738;44.860;10.066;2023-07-28T14:06:44;30.10;99.90
28532;DHT22;15738;44.860;10.066;2023-07-28T14:09:29;30.00;99.90
28532;DHT22;15738;44.860;10.066;2023-07-28T14:12:15;30.00;99.90
28532;DHT22;15738;44.860;10.066;2023-07-28T14:15:01;30.10;99.90
28532;DHT22;15738;44.860;10.066;2023-07-28T14:17:47;30.30;99.90
28532;DHT22;15738;44.860;10.066;2023-07-28T14:20:32;30.40;99.90
28532;DHT22;15738;44.860;10.066;2023-07-28T14:23:24;30.50;99.90
28532;DHT22;15738;44.860;10.066;2023-07-28T14:26:10;30.60;99.90
28532;DHT22;15738;44.860;10.066;2023-07-28T14:28:56;30.60;99.90
28532;DHT22;15738;44.860;10.066;2023-07-28T14:31:42;30.50;99.90
28532;DHT22;15738;44.860;10.066;2023-07-28T14:34:28;30.40;99.90
28532;DHT22;15738;44.860;10.066;2023-07-28T14:37:14;30.40;99.90
28532;DHT22;15738;44.860;10.066;2023-07-28T14:40:00;30.20;99.90
28532;DHT22;15738;44.860;10.066;2023-07-28T14:42:45;30.10;99.90
28532;DHT22;15738;44.860;10.066;2023-07-28T14:45:31;30.10;99.90
28532;DHT22;15738;44.860;10.066;2023-07-28T14:48:18;30.30;99.90
28532;DHT22;15738;44.860;10.066;2023-07-28T14:51:03;30.20;99.90
28532;DHT22;15738;44.860;10.066;2023-07-28T14:53:49;30.20;99.90
28532;DHT22;15738;44.860;10.066;2023-07-28T14:56:35;30.10;99.90
28532;DHT22;15738;44.860;10.066;2023-07-28T14:59:20;30.20;99.90
28532;DHT22;15738;44.860;10.066;2023-07-28T15:02:06;30.30;99.90
28532;DHT22;15738;44.860;10.066;2023-07-28T15:04:53;30.30;99.90
28532;DHT22;15738;44.860;10.066;2023-07-28T15:07:38;30.40;99.90
28532;DHT22;15738;44.860;10.066;2023-07-28T15:10:24;30.10;99.90
28532;DHT22;15738;44.860;10.066;2023-07-28T15:13:10;30.10;99.90
28532;DHT22;15738;44.860;10.066;2023-07-28T15:15:56;29.90;99.90
28532;DHT22;15738;44.860;10.066;2023-07-28T15:18:42;29.80;99.90
28532;DHT22;15738;44.860;10.066;2023-07-28T15:21:30;29.90;99.90
28532;DHT22;15738;44.860;10.066;2023-07-28T15:24:15;30.00;99.90
28532;DHT22;15738;44.860;10.066;2023-07-28T15:27:04;30.10;99.90
28532;DHT22;15738;44.860;10.066;2023-07-28T15:29:50;30.20;99.90
28532;DHT22;15738;44.860;10.066;2023-07-28T15:32:37;30.30;99.90
28532;DHT22;15738;44.860;10.066;2023-07-28T15:35:23;30.40;99.90
28532;DHT22;15738;44.860;10.066;2023-07-28T15:38:09;30.50;99.90
28532;DHT22;15738;44.860;10.066;2023-07-28T15:40:54;30.40;99.90
28532;DHT22;15738;44.860;10.066;2023-07-28T15:43:43;30.40;99.90
28532;DHT22;15738;44.860;10.066;2023-07-28T15:46:29;30.20;99.90
28532;DHT22;15738;44.860;10.066;2023-07-28T15:49:15;30.10;99.90
28532;DHT22;15738;44.860;10.066;2023-07-28T15:52:02;29.90;99.90
28532;DHT22;15738;44.860;10.066;2023-07-28T15:54:48;29.90;99.90
28532;DHT22;15738;44.860;10.066;2023-07-28T15:57:33;29.70;99.90
28532;DHT22;15738;44.860;10.066;2023-07-28T16:00:20;29.60;99.90
28532;DHT22;15738;44.860;10.066;2023-07-28T16:03:06;29.50;99.90
28532;DHT22;15738;44.860;10.066;2023-07-28T16:05:52;29.40;99.90
28532;DHT22;15738;44.860;10.066;2023-07-28T16:08:38;29.40;99.90
28532;DHT22;15738;44.860;10.066;2023-07-28T16:11:24;29.40;99.90
28532;DHT22;15738;44.860;10.066;2023-07-28T16:14:10;29.40;99.90
28532;DHT22;15738;44.860;10.066;2023-07-28T16:16:55;29.30;99.90
28532;DHT22;15738;44.860;10.066;2023-07-28T16:19:41;29.30;99.90
28532;DHT22;15738;44.860;10.066;2023-07-28T16:22:27;29.30;99.90
28532;DHT22;15738;44.860;10.066;2023-07-28T16:25:13;29.20;99.90
28532;DHT22;15738;44.860;10.066;2023-07-28T16:27:59;29.10;99.90
28532;DHT22;15738;44.860;10.066;2023-07-28T16:30:45;29.20;99.90
28532;DHT22;15738;44.860;10.066;2023-07-28T16:33:32;29.10;99.90
28532;DHT22;15738;44.860;10.066;2023-07-28T16:36:18;29.00;99.90
28532;DHT22;15738;44.860;10.066;2023-07-28T16:39:04;29.10;99.90
28532;DHT22;15738;44.860;10.066;2023-07-28T16:41:50;29.10;99.90
28532;DHT22;15738;44.860;10.066;2023-07-28T16:44:36;29.10;99.90
28532;DHT22;15738;44.860;10.066;2023-07-28T16:47:24;29.20;99.90
28532;DHT22;15738;44.860;10.066;2023-07-28T16:50:10;29.20;99.90
28532;DHT22;15738;44.860;10.066;2023-07-28T16:52:55;29.30;99.90
28532;DHT22;15738;44.860;10.066;2023-07-28T16:55:41;29.30;99.90
28532;DHT22;15738;44.860;10.066;2023-07-28T16:58:27;29.20;99.90
28532;DHT22;15738;44.860;10.066;2023-07-28T17:01:13;29.20;99.90
28532;DHT22;15738;44.860;10.066;2023-07-28T17:03:58;29.20;99.90
28532;DHT22;15738;44.860;10.066;2023-07-28T17:06:44;29.10;99.90
28532;DHT22;15738;44.860;10.066;2023-07-28T17:09:31;29.10;99.90
28532;DHT22;15738;44.860;10.066;2023-07-28T17:12:16;29.00;99.90
28532;DHT22;15738;44.860;10.066;2023-07-28T17:15:02;29.00;99.90
28532;DHT22;15738;44.860;10.066;2023-07-28T17:17:48;28.90;99.90
28532;DHT22;15738;44.860;10.066;2023-07-28T17:20:35;28.90;99.90
28532;DHT22;15738;44.860;10.066;2023-07-28T17:23:21;28.90;99.90
28532;DHT22;15738;44.860;10.066;2023-07-28T17:26:07;28.90;99.90
28532;DHT22;15738;44.860;10.066;2023-07-28T17:28:53;28.90;99.90
28532;DHT22;15738;44.860;10.066;2023-07-28T17:31:39;28.80;99.90
28532;DHT22;15738;44.860;10.066;2023-07-28T17:34:25;28.80;99.90
28532;DHT22;15738;44.860;10.066;2023-07-28T17:37:14;28.70;99.90
28532;DHT22;15738;44.860;10.066;2023-07-28T17:40:00;28.70;99.90
28532;DHT22;15738;44.860;10.066;2023-07-28T17:42:46;28.50;99.90
28532;DHT22;15738;44.860;10.066;2023-07-28T17:45:31;28.50;99.90
28532;DHT22;15738;44.860;10.066;2023-07-28T17:48:17;28.40;99.90
28532;DHT22;15738;44.860;10.066;2023-07-28T17:51:03;28.30;99.90